Blackwood Terrace, New Jersey
Current Conditions -  °F | °C
As of 8:54 AM on Monday 22 Dec 2014 (Local Time) from KPHL Reporting Station
Scattered Clouds Scattered Clouds  
Wind Chill: 29°   Ceiling: Unl
Heat Index: 35°   Visibility: 10mi
Dew Point: 28°   Wind: 7mph
Humidity: 76%   Direction: NA
Pressure: 30.32"   Gusts: NA
Location:  39.8266°N, 75.1276°W
Report Text: KPHL 221354Z VRB06KT 10SM FEW022 FEW080 SCT240 02/M02 A3032 RMK AO2 SLP267 T00171022
Loading
Personal Weather Stations






























Interactive Weather Map New forecast layout! Learn more

10-Day Weather Forecast

Advertisements
Track Severe Weather on mobile